Observation data for Ralls on 11/09/2019      Previous  Date       Current Mesonet Observations  Soil Data  Daily Summary Page  Observations in Plain Language
KRLS 090600Z 25006KT 05/04 A3029 RMK A01 T00530044  RH  096%=      5-min Rain = 0
KRLS 090605Z 25007KT 05/04 A3029 RMK A01 T00530043  RH  096%=      5-min Rain = 0
KRLS 090610Z 25007KT 05/04 A3028 RMK A01 T00530044  RH  096%=      5-min Rain = 0
KRLS 090615Z 25008KT 06/05 A3029 RMK A01 T00550045  RH  096%=      5-min Rain = 0
KRLS 090620Z 25007KT 05/05 A3028 RMK A01 T00540045  RH  096%=      5-min Rain = 0
KRLS 090625Z 25007KT 05/05 A3028 RMK A01 T00540045  RH  096%=      5-min Rain = 0
KRLS 090630Z 25008KT 05/04 A3028 RMK A01 T00540044  RH  096%=      5-min Rain = 0
KRLS 090635Z 25008KT 05/04 A3028 RMK A01 T00530043  RH  096%=      5-min Rain = 0
KRLS 090640Z 25008KT 05/04 A3028 RMK A01 T00530044  RH  096%=      5-min Rain = 0
KRLS 090645Z 26007KT 05/04 A3028 RMK A01 T00530044  RH  096%=      5-min Rain = 0
KRLS 090650Z 25008KT 05/04 A3028 RMK A01 T00540044  RH  096%=      5-min Rain = 0
KRLS 090655Z 25007KT 05/04 A3028 RMK A01 T00540044  RH  095%=      5-min Rain = 0
KRLS 090700Z 25007KT 05/04 A3028 RMK A01 T00540044  RH  095%=      5-min Rain = 0
KRLS 090705Z 25007KT 05/05 A3028 RMK A01 T00540045  RH  095%=      5-min Rain = 0
KRLS 090710Z 25007KT 06/05 A3028 RMK A01 T00550045  RH  095%=      5-min Rain = 0
KRLS 090715Z 25007KT 05/04 A3028 RMK A01 T00540044  RH  095%=      5-min Rain = 0
KRLS 090720Z 24007KT 05/04 A3028 RMK A01 T00540044  RH  095%=      5-min Rain = 0
KRLS 090725Z 24006KT 05/04 A3028 RMK A01 T00530043  RH  095%=      5-min Rain = 0
KRLS 090730Z 24007KT 05/04 A3027 RMK A01 T00530042  RH  095%=      5-min Rain = 0
KRLS 090735Z 23007KT 05/04 A3027 RMK A01 T00520041  RH  095%=      5-min Rain = 0
KRLS 090740Z 23009KT 05/04 A3027 RMK A01 T00520041  RH  095%=      5-min Rain = 0
KRLS 090745Z 23009KT 05/04 A3027 RMK A01 T00530042  RH  095%=      5-min Rain = 0
KRLS 090750Z 24008KT 05/04 A3027 RMK A01 T00530042  RH  095%=      5-min Rain = 0
KRLS 090755Z 26006KT 05/04 A3027 RMK A01 T00510040  RH  095%=      5-min Rain = 0
KRLS 090800Z 26005KT 05/04 A3027 RMK A01 T00500040  RH  094%=      5-min Rain = 0
KRLS 090805Z 27005KT 05/04 A3027 RMK A01 T00470036  RH  094%=      5-min Rain = 0
KRLS 090810Z 27005KT 05/03 A3027 RMK A01 T00450034  RH  094%=      5-min Rain = 0
KRLS 090815Z 27005KT 04/03 A3027 RMK A01 T00430033  RH  094%=      5-min Rain = 0
KRLS 090820Z 26005KT 04/03 A3027 RMK A01 T00420031  RH  094%=      5-min Rain = 0
KRLS 090825Z 27005KT 04/03 A3027 RMK A01 T00400029  RH  094%=      5-min Rain = 0
KRLS 090830Z 27004KT 04/03 A3027 RMK A01 T00390029  RH  095%=      5-min Rain = 0
KRLS 090835Z 26005KT 04/03 A3026 RMK A01 T00390028  RH  095%=      5-min Rain = 0
KRLS 090840Z 26005KT 04/03 A3026 RMK A01 T00390028  RH  095%=      5-min Rain = 0
KRLS 090845Z 26006KT 04/03 A3026 RMK A01 T00380028  RH  095%=      5-min Rain = 0
KRLS 090850Z 26005KT 04/03 A3026 RMK A01 T00380028  RH  095%=      5-min Rain = 0
KRLS 090855Z 26005KT 04/03 A3025 RMK A01 T00390029  RH  095%=      5-min Rain = 0
KRLS 090900Z 26006KT 04/03 A3025 RMK A01 T00400030  RH  095%=      5-min Rain = 0
KRLS 090905Z 26006KT 04/03 A3025 RMK A01 T00420033  RH  095%=      5-min Rain = 0
KRLS 090910Z 27005KT 04/03 A3025 RMK A01 T00420033  RH  095%=      5-min Rain = 0
KRLS 090915Z 27005KT 04/03 A3025 RMK A01 T00390030  RH  095%=      5-min Rain = 0
KRLS 090920Z 27006KT 04/03 A3025 RMK A01 T00390029  RH  095%=      5-min Rain = 0
KRLS 090925Z 26006KT 04/03 A3025 RMK A01 T00390030  RH  095%=      5-min Rain = 0
KRLS 090930Z 27006KT 04/03 A3025 RMK A01 T00380029  RH  095%=      5-min Rain = 0
KRLS 090935Z 27006KT 04/03 A3025 RMK A01 T00380028  RH  095%=      5-min Rain = 0
KRLS 090940Z 27006KT 04/03 A3025 RMK A01 T00380029  RH  095%=      5-min Rain = 0
KRLS 090945Z 26006KT 04/03 A3025 RMK A01 T00390030  RH  096%=      5-min Rain = 0
KRLS 090950Z 26006KT 04/03 A3025 RMK A01 T00390030  RH  096%=      5-min Rain = 0
KRLS 090955Z 26007KT 04/03 A3024 RMK A01 T00400031  RH  096%=      5-min Rain = 0
KRLS 091000Z 26007KT 04/03 A3024 RMK A01 T00420033  RH  096%=      5-min Rain = 0
KRLS 091005Z 27007KT 04/03 A3025 RMK A01 T00380030  RH  096%=      5-min Rain = 0
KRLS 091010Z 27007KT 04/03 A3024 RMK A01 T00400031  RH  096%=      5-min Rain = 0
KRLS 091015Z 28006KT 04/03 A3025 RMK A01 T00390030  RH  096%=      5-min Rain = 0
KRLS 091020Z 28006KT 04/03 A3025 RMK A01 T00400031  RH  096%=      5-min Rain = 0
KRLS 091025Z 27005KT 04/03 A3024 RMK A01 T00390030  RH  096%=      5-min Rain = 0
KRLS 091030Z 28005KT 04/03 A3025 RMK A01 T00380029  RH  096%=      5-min Rain = 0
KRLS 091035Z 29005KT 04/03 A3025 RMK A01 T00380029  RH  096%=      5-min Rain = 0
KRLS 091040Z 27005KT 04/03 A3025 RMK A01 T00380029  RH  096%=      5-min Rain = 0
KRLS 091045Z 27005KT 04/03 A3025 RMK A01 T00370029  RH  096%=      5-min Rain = 0
KRLS 091050Z 26005KT 04/03 A3024 RMK A01 T00350027  RH  096%=      5-min Rain = 0
KRLS 091055Z 26005KT 03/03 A3024 RMK A01 T00340026  RH  096%=      5-min Rain = 0
KRLS 091100Z 26006KT 03/03 A3024 RMK A01 T00340026  RH  096%=      5-min Rain = 0
KRLS 091105Z 26005KT 03/03 A3024 RMK A01 T00330025  RH  096%=      5-min Rain = 0
KRLS 091110Z 26005KT 03/02 A3024 RMK A01 T00330024  RH  096%=      5-min Rain = 0
KRLS 091115Z 27005KT 03/02 A3024 RMK A01 T00320023  RH  096%=      5-min Rain = 0
KRLS 091120Z 27005KT 03/02 A3024 RMK A01 T00290021  RH  096%=      5-min Rain = 0
KRLS 091125Z 27005KT 03/02 A3024 RMK A01 T00290021  RH  096%=      5-min Rain = 0
KRLS 091130Z 27005KT 03/02 A3024 RMK A01 T00290021  RH  096%=      5-min Rain = 0
KRLS 091135Z 26005KT 03/02 A3024 RMK A01 T00270019  RH  096%=      5-min Rain = 0
KRLS 091140Z 26004KT 03/02 A3024 RMK A01 T00270019  RH  096%=      5-min Rain = 0
KRLS 091145Z 26005KT 03/02 A3024 RMK A01 T00270019  RH  096%=      5-min Rain = 0
KRLS 091150Z 26004KT 03/02 A3024 RMK A01 T00260018  RH  096%=      5-min Rain = 0
KRLS 091155Z 26006KT 03/02 A3024 RMK A01 T00270019  RH  096%=      5-min Rain = 0
KRLS 091200Z 26007KT 03/02 A3024 RMK A01 T00270019  RH  096%=      5-min Rain = 0
KRLS 091205Z 26007KT 03/02 A3024 RMK A01 T00290021  RH  096%=      5-min Rain = 0
KRLS 091210Z 26007KT 03/02 A3024 RMK A01 T00290021  RH  096%=      5-min Rain = 0
KRLS 091215Z 26007KT 03/02 A3024 RMK A01 T00290021  RH  096%=      5-min Rain = 0
KRLS 091220Z 26007KT 03/02 A3024 RMK A01 T00290021  RH  096%=      5-min Rain = 0
KRLS 091225Z 26005KT 03/02 A3024 RMK A01 T00280020  RH  096%=      5-min Rain = 0
KRLS 091230Z 26005KT 03/02 A3024 RMK A01 T00280020  RH  096%=      5-min Rain = 0
KRLS 091235Z 26005KT 03/02 A3024 RMK A01 T00270019  RH  096%=      5-min Rain = 0
KRLS 091240Z 26007KT 03/02 A3024 RMK A01 T00280020  RH  096%=      5-min Rain = 0
KRLS 091245Z 27007KT 03/02 A3024 RMK A01 T00280020  RH  096%=      5-min Rain = 0
KRLS 091250Z 27007KT 03/02 A3024 RMK A01 T00290021  RH  096%=      5-min Rain = 0
KRLS 091255Z 27007KT 03/02 A3024 RMK A01 T00280020  RH  096%=      5-min Rain = 0
KRLS 091300Z 27006KT 03/02 A3024 RMK A01 T00280020  RH  096%=      5-min Rain = 0
KRLS 091305Z 27007KT 03/02 A3024 RMK A01 T00310022  RH  096%=      5-min Rain = 0
KRLS 091310Z 27007KT 03/02 A3024 RMK A01 T00320023  RH  096%=      5-min Rain = 0
KRLS 091315Z 27007KT 03/02 A3024 RMK A01 T00330024  RH  096%=      5-min Rain = 0
KRLS 091320Z 28006KT 03/02 A3024 RMK A01 T00320024  RH  096%=      5-min Rain = 0
KRLS 091325Z 28007KT 03/02 A3025 RMK A01 T00320024  RH  096%=      5-min Rain = 0
KRLS 091330Z 28006KT 03/02 A3025 RMK A01 T00330024  RH  095%=      5-min Rain = 0
KRLS 091335Z 28006KT 03/03 A3025 RMK A01 T00340025  RH  095%=      5-min Rain = 0
KRLS 091340Z 28006KT 04/03 A3025 RMK A01 T00360027  RH  095%=      5-min Rain = 0
KRLS 091345Z 28005KT 04/03 A3025 RMK A01 T00380029  RH  095%=      5-min Rain = 0
KRLS 091350Z 28006KT 04/03 A3025 RMK A01 T00410031  RH  095%=      5-min Rain = 0
KRLS 091355Z 28007KT 04/03 A3025 RMK A01 T00440033  RH  095%=      5-min Rain = 0
KRLS 091400Z 27007KT 05/04 A3025 RMK A01 T00470036  RH  095%=      5-min Rain = 0
KRLS 091405Z 27007KT 05/04 A3025 RMK A01 T00480037  RH  094%=      5-min Rain = 0
KRLS 091410Z 27007KT 05/04 A3025 RMK A01 T00490037  RH  094%=      5-min Rain = 0
KRLS 091415Z 28008KT 05/04 A3025 RMK A01 T00510038  RH  094%=      5-min Rain = 0
KRLS 091420Z 28007KT 05/04 A3025 RMK A01 T00530040  RH  093%=      5-min Rain = 0
KRLS 091425Z 28008KT 06/04 A3025 RMK A01 T00560042  RH  093%=      5-min Rain = 0
KRLS 091430Z 28008KT 06/05 A3025 RMK A01 T00590045  RH  092%=      5-min Rain = 0
KRLS 091435Z 28008KT 06/05 A3025 RMK A01 T00620047  RH  092%=      5-min Rain = 0
KRLS 091440Z 28009KT 06/05 A3025 RMK A01 T00640049  RH  092%=      5-min Rain = 0
KRLS 091445Z 28009KT 07/05 A3026 RMK A01 T00660050  RH  091%=      5-min Rain = 0
KRLS 091450Z 28009KT 07/05 A3026 RMK A01 T00690052  RH  091%=      5-min Rain = 0
KRLS 091455Z 29010KT 07/05 A3026 RMK A01 T00720053  RH  090%=      5-min Rain = 0
KRLS 091500Z 29010KT 07/05 A3026 RMK A01 T00730053  RH  089%=      5-min Rain = 0
KRLS 091505Z 28009KT 08/05 A3026 RMK A01 T00750054  RH  088%=      5-min Rain = 0
KRLS 091510Z 28009KT 08/06 A3026 RMK A01 T00770055  RH  088%=      5-min Rain = 0
KRLS 091515Z 27009KT 08/06 A3026 RMK A01 T00810058  RH  087%=      5-min Rain = 0
KRLS 091520Z 27009KT 08/06 A3026 RMK A01 T00830059  RH  087%=      5-min Rain = 0
KRLS 091525Z 27009KT 09/06 A3026 RMK A01 T00860061  RH  086%=      5-min Rain = 0
KRLS 091530Z 27007KT 09/06 A3026 RMK A01 T00900064  RH  086%=      5-min Rain = 0
KRLS 091535Z 26007KT 09/06 A3026 RMK A01 T00910064  RH  085%=      5-min Rain = 0
KRLS 091540Z 27007KT 09/07 A3026 RMK A01 T00940066  RH  085%=      5-min Rain = 0
KRLS 091545Z 27008KT 10/07 A3026 RMK A01 T00950066  RH  084%=      5-min Rain = 0
KRLS 091550Z 27008KT 10/07 A3026 RMK A01 T00980067  RH  083%=      5-min Rain = 0
KRLS 091555Z 28009KT 10/07 A3026 RMK A01 T01000069  RH  083%=      5-min Rain = 0
KRLS 091600Z 26008KT 10/07 A3026 RMK A01 T01030070  RH  082%=      5-min Rain = 0
KRLS 091605Z 27008KT 11/07 A3026 RMK A01 T01060072  RH  082%=      5-min Rain = 0
KRLS 091610Z 27007KT 11/08 A3026 RMK A01 T01100075  RH  081%=      5-min Rain = 0
KRLS 091615Z 28007KT 12/08 A3026 RMK A01 T01150078  RH  080%=      5-min Rain = 0
KRLS 091620Z 28008KT 12/08 A3026 RMK A01 T01150075  RH  078%=      5-min Rain = 0
KRLS 091625Z 27007KT 12/08 A3026 RMK A01 T01180077  RH  078%=      5-min Rain = 0
KRLS 091630Z 26007KT 12/08 A3026 RMK A01 T01210077  RH  077%=      5-min Rain = 0
KRLS 091635Z 26007KT 12/08 A3026 RMK A01 T01230078  RH  076%=      5-min Rain = 0
KRLS 091640Z 27007KT 13/08 A3026 RMK A01 T01260079  RH  075%=      5-min Rain = 0
KRLS 091645Z 26006KT 13/08 A3026 RMK A01 T01300082  RH  075%=      5-min Rain = 0
KRLS 091650Z 27006KT 13/08 A3026 RMK A01 T01340082  RH  073%=      5-min Rain = 0
KRLS 091655Z 27007KT 13/08 A3026 RMK A01 T01340079  RH  072%=      5-min Rain = 0
KRLS 091700Z 27008KT 14/08 A3026 RMK A01 T01380079  RH  070%=      5-min Rain = 0
KRLS 091705Z 26008KT 14/08 A3026 RMK A01 T01390078  RH  069%=      5-min Rain = 0
KRLS 091710Z 26007KT 14/08 A3025 RMK A01 T01420081  RH  069%=      5-min Rain = 0
KRLS 091715Z 25008KT 15/08 A3025 RMK A01 T01470081  RH  067%=      5-min Rain = 0
KRLS 091720Z 24009KT 15/08 A3025 RMK A01 T01500078  RH  064%=      5-min Rain = 0
KRLS 091725Z 26008KT 15/08 A3025 RMK A01 T01510081  RH  065%=      5-min Rain = 0
KRLS 091730Z 25009KT 15/08 A3025 RMK A01 T01500078  RH  064%=      5-min Rain = 0
KRLS 091735Z 24009KT 15/08 A3025 RMK A01 T01520077  RH  063%=      5-min Rain = 0
KRLS 091740Z 25007KT 15/08 A3025 RMK A01 T01530078  RH  063%=      5-min Rain = 0
KRLS 091745Z 25007KT 16/08 A3025 RMK A01 T01560079  RH  062%=      5-min Rain = 0
KRLS 091750Z 25006KT 16/08 A3025 RMK A01 T01600084  RH  062%=      5-min Rain = 0
KRLS 091755Z 25007KT 16/08 A3024 RMK A01 T01600078  RH  060%=      5-min Rain = 0
KRLS 091800Z 25006KT 16/08 A3024 RMK A01 T01640081  RH  060%=      5-min Rain = 0
KRLS 091805Z 25008KT 17/08 A3024 RMK A01 T01670079  RH  058%=      5-min Rain = 0
KRLS 091810Z 24008KT 17/08 A3023 RMK A01 T01680077  RH  057%=      5-min Rain = 0
KRLS 091815Z 25008KT 17/08 A3023 RMK A01 T01710076  RH  055%=      5-min Rain = 0
KRLS 091820Z 25009KT 17/08 A3022 RMK A01 T01720077  RH  055%=      5-min Rain = 0
KRLS 091825Z 25009KT 17/08 A3022 RMK A01 T01720075  RH  054%=      5-min Rain = 0
KRLS 091830Z 25008KT 18/08 A3022 RMK A01 T01770080  RH  054%=      5-min Rain = 0
KRLS 091835Z 24009KT 18/08 A3021 RMK A01 T01770076  RH  053%=      5-min Rain = 0
KRLS 091840Z 24009KT 18/08 A3021 RMK A01 T01780078  RH  053%=      5-min Rain = 0
KRLS 091845Z 23010KT 18/08 A3021 RMK A01 T01840077  RH  051%=      5-min Rain = 0
KRLS 091850Z 23011KT 18/07 A302 RMK A01 T01820067  RH  048%=      5-min Rain = 0
KRLS 091855Z 24010KT 18/07 A302 RMK A01 T01830066  RH  047%=      5-min Rain = 0
KRLS 091900Z 25011KT 18/07 A302 RMK A01 T01840068  RH  048%=      5-min Rain = 0
KRLS 091905Z 25010KT 19/07 A302 RMK A01 T01860070  RH  048%=      5-min Rain = 0
KRLS 091910Z 25009KT 19/07 A3019 RMK A01 T01860071  RH  048%=      5-min Rain = 0
KRLS 091915Z 25008KT 19/07 A3019 RMK A01 T01910072  RH  047%=      5-min Rain = 0
KRLS 091920Z 26009KT 19/06 A3019 RMK A01 T01900064  RH  045%=      5-min Rain = 0
KRLS 091925Z 25009KT 19/07 A3018 RMK A01 T01920068  RH  045%=      5-min Rain = 0
KRLS 091930Z 25009KT 19/07 A3018 RMK A01 T01940068  RH  045%=      5-min Rain = 0
KRLS 091935Z 24009KT 20/07 A3018 RMK A01 T01960069  RH  045%=      5-min Rain = 0
KRLS 091940Z 23007KT 20/07 A3018 RMK A01 T01960070  RH  045%=      5-min Rain = 0
KRLS 091945Z 24010KT 20/07 A3018 RMK A01 T01970065  RH  043%=      5-min Rain = 0
KRLS 091950Z 24009KT 20/07 A3017 RMK A01 T02000068  RH  043%=      5-min Rain = 0
KRLS 091955Z 24008KT 20/07 A3017 RMK A01 T02020068  RH  043%=      5-min Rain = 0
KRLS 092000Z 23009KT 20/07 A3017 RMK A01 T02000066  RH  043%=      5-min Rain = 0
KRLS 092005Z 24008KT 20/07 A3017 RMK A01 T02030069  RH  043%=      5-min Rain = 0
KRLS 092010Z 23008KT 20/07 A3016 RMK A01 T02020066  RH  042%=      5-min Rain = 0
KRLS 092015Z 24008G13KT 21/07 A3016 RMK A01 T02050071  RH  043%=      5-min Rain = 0
KRLS 092020Z 23008KT 20/07 A3016 RMK A01 T02040065  RH  041%=      5-min Rain = 0
KRLS 092025Z 24006KT 21/07 A3016 RMK A01 T02060065  RH  041%=      5-min Rain = 0
KRLS 092030Z 22009KT 21/07 A3016 RMK A01 T02070066  RH  041%=      5-min Rain = 0
KRLS 092035Z 23008KT 21/07 A3016 RMK A01 T02080067  RH  041%=      5-min Rain = 0
KRLS 092040Z 23008KT 21/06 A3015 RMK A01 T02070062  RH  040%=      5-min Rain = 0
KRLS 092045Z 23008KT 21/06 A3015 RMK A01 T02080064  RH  040%=      5-min Rain = 0
KRLS 092050Z 22009KT 21/06 A3015 RMK A01 T02080064  RH  040%=      5-min Rain = 0
KRLS 092055Z 24008KT 21/06 A3015 RMK A01 T02080061  RH  039%=      5-min Rain = 0
KRLS 092100Z 23009G14KT 21/06 A3015 RMK A01 T02080058  RH  038%=      5-min Rain = 0
KRLS 092105Z 24009KT 21/06 A3015 RMK A01 T02080061  RH  039%=      5-min Rain = 0
KRLS 092110Z 24008KT 21/06 A3014 RMK A01 T02080061  RH  039%=      5-min Rain = 0
KRLS 092115Z 22008KT 21/06 A3014 RMK A01 T02100061  RH  039%=      5-min Rain = 0
KRLS 092120Z 23008KT 21/06 A3014 RMK A01 T02100061  RH  039%=      5-min Rain = 0
KRLS 092125Z 23008KT 21/06 A3014 RMK A01 T02110061  RH  038%=      5-min Rain = 0
KRLS 092130Z 23007KT 21/06 A3014 RMK A01 T02110060  RH  038%=      5-min Rain = 0
KRLS 092135Z 21009KT 21/06 A3014 RMK A01 T02090060  RH  039%=      5-min Rain = 0
KRLS 092140Z 22008KT 21/06 A3014 RMK A01 T02080062  RH  040%=      5-min Rain = 0
KRLS 092145Z 22008KT 21/06 A3014 RMK A01 T02080059  RH  039%=      5-min Rain = 0
KRLS 092150Z 22008KT 21/06 A3014 RMK A01 T02090058  RH  038%=      5-min Rain = 0
KRLS 092155Z 22008KT 21/06 A3013 RMK A01 T02100059  RH  038%=      5-min Rain = 0
KRLS 092200Z 22009KT 21/06 A3013 RMK A01 T02090059  RH  039%=      5-min Rain = 0
KRLS 092205Z 23009KT 21/06 A3013 RMK A01 T02080055  RH  038%=      5-min Rain = 0
KRLS 092210Z 22008KT 21/06 A3013 RMK A01 T02080057  RH  038%=      5-min Rain = 0
KRLS 092215Z 22009KT 21/05 A3013 RMK A01 T02070049  RH  036%=      5-min Rain = 0
KRLS 092220Z 22008KT 21/05 A3013 RMK A01 T02070054  RH  037%=      5-min Rain = 0
KRLS 092225Z 22009KT 21/06 A3013 RMK A01 T02070055  RH  038%=      5-min Rain = 0
KRLS 092230Z 21008KT 21/05 A3013 RMK A01 T02060054  RH  038%=      5-min Rain = 0
KRLS 092235Z 21008KT 20/05 A3013 RMK A01 T02040051  RH  038%=      5-min Rain = 0
KRLS 092240Z 21007KT 20/05 A3012 RMK A01 T02030053  RH  038%=      5-min Rain = 0
KRLS 092245Z 21008KT 20/05 A3012 RMK A01 T02000051  RH  038%=      5-min Rain = 0
KRLS 092250Z 22008KT 20/05 A3012 RMK A01 T01980048  RH  038%=      5-min Rain = 0
KRLS 092255Z 22007KT 19/05 A3012 RMK A01 T01930052  RH  040%=      5-min Rain = 0
KRLS 092300Z 21007KT 19/06 A3013 RMK A01 T01900057  RH  043%=      5-min Rain = 0
KRLS 092305Z 21007KT 19/06 A3012 RMK A01 T01890058  RH  043%=      5-min Rain = 0
KRLS 092310Z 21006KT 19/06 A3012 RMK A01 T01850059  RH  045%=      5-min Rain = 0
KRLS 092315Z 21007KT 18/06 A3012 RMK A01 T01790059  RH  046%=      5-min Rain = 0
KRLS 092320Z 21007KT 17/06 A3012 RMK A01 T01730058  RH  048%=      5-min Rain = 0
KRLS 092325Z 21007KT 17/06 A3012 RMK A01 T01720055  RH  047%=      5-min Rain = 0
KRLS 092330Z 20007KT 16/05 A3012 RMK A01 T01630054  RH  050%=      5-min Rain = 0
KRLS 092335Z 20007KT 16/05 A3012 RMK A01 T01570053  RH  051%=      5-min Rain = 0
KRLS 092340Z 20007KT 16/05 A3012 RMK A01 T01570052  RH  051%=      5-min Rain = 0
KRLS 092345Z 20006KT 15/06 A3012 RMK A01 T01490056  RH  055%=      5-min Rain = 0
KRLS 092350Z 20006KT 15/06 A3012 RMK A01 T01450057  RH  057%=      5-min Rain = 0
KRLS 092355Z 20006KT 14/06 A3012 RMK A01 T01420058  RH  058%=      5-min Rain = 0
KRLS 100000Z 20006KT 14/06 A3013 RMK A01 T01390061  RH  061%=      5-min Rain = 0
KRLS 100005Z 20006KT 14/06 A3013 RMK A01 T01360062  RH  063%=      5-min Rain = 0
KRLS 100010Z 20006KT 13/06 A3012 RMK A01 T01320064  RH  065%=      5-min Rain = 0
KRLS 100015Z 20006KT 13/07 A3012 RMK A01 T01270065  RH  067%=      5-min Rain = 0
KRLS 100020Z 20005KT 13/07 A3013 RMK A01 T01290068  RH  068%=      5-min Rain = 0
KRLS 100025Z 19006KT 13/07 A3013 RMK A01 T01300068  RH  068%=      5-min Rain = 0
KRLS 100030Z 19006KT 13/07 A3012 RMK A01 T01280067  RH  068%=      5-min Rain = 0
KRLS 100035Z 19007KT 12/07 A3012 RMK A01 T01230066  RH  070%=      5-min Rain = 0
KRLS 100040Z 19007KT 12/06 A3013 RMK A01 T01170064  RH  071%=      5-min Rain = 0
KRLS 100045Z 19005KT 11/06 A3013 RMK A01 T01140064  RH  073%=      5-min Rain = 0
KRLS 100050Z 19005KT 11/07 A3013 RMK A01 T01130066  RH  075%=      5-min Rain = 0
KRLS 100055Z 18005KT 11/07 A3013 RMK A01 T01140069  RH  076%=      5-min Rain = 0
KRLS 100100Z 18006KT 12/07 A3013 RMK A01 T01150070  RH  076%=      5-min Rain = 0
KRLS 100105Z 18006KT 11/07 A3013 RMK A01 T01100066  RH  076%=      5-min Rain = 0
KRLS 100110Z 19006KT 10/06 A3013 RMK A01 T01030063  RH  078%=      5-min Rain = 0
KRLS 100115Z 19006KT 10/06 A3013 RMK A01 T01000062  RH  079%=      5-min Rain = 0
KRLS 100120Z 19006KT 10/06 A3013 RMK A01 T00980063  RH  081%=      5-min Rain = 0
KRLS 100125Z 19006KT 10/06 A3013 RMK A01 T00970062  RH  081%=      5-min Rain = 0
KRLS 100130Z 19006KT 10/06 A3013 RMK A01 T00960063  RH  082%=      5-min Rain = 0
KRLS 100135Z 20007KT 10/07 A3013 RMK A01 T00980066  RH  083%=      5-min Rain = 0
KRLS 100140Z 20007KT 10/07 A3013 RMK A01 T01000068  RH  083%=      5-min Rain = 0
KRLS 100145Z 20008KT 10/07 A3013 RMK A01 T01030070  RH  082%=      5-min Rain = 0
KRLS 100150Z 20007KT 11/07 A3013 RMK A01 T01050072  RH  082%=      5-min Rain = 0
KRLS 100155Z 20007KT 11/07 A3013 RMK A01 T01050071  RH  082%=      5-min Rain = 0
KRLS 100200Z 20007KT 10/07 A3013 RMK A01 T01030069  RH  081%=      5-min Rain = 0
KRLS 100205Z 20007KT 10/07 A3013 RMK A01 T01000067  RH  082%=      5-min Rain = 0
KRLS 100210Z 20008KT 10/07 A3013 RMK A01 T00980065  RH  082%=      5-min Rain = 0
KRLS 100215Z 20008KT 10/06 A3013 RMK A01 T00960064  RH  083%=      5-min Rain = 0
KRLS 100220Z 20007KT 10/07 A3013 RMK A01 T00960065  RH  083%=      5-min Rain = 0
KRLS 100225Z 20007KT 10/07 A3013 RMK A01 T00990068  RH  083%=      5-min Rain = 0
KRLS 100230Z 20007KT 10/07 A3012 RMK A01 T00990067  RH  083%=      5-min Rain = 0
KRLS 100235Z 20006KT 10/07 A3012 RMK A01 T00980066  RH  083%=      5-min Rain = 0
KRLS 100240Z 20006KT 10/07 A3012 RMK A01 T00990067  RH  083%=      5-min Rain = 0
KRLS 100245Z 20006KT 10/07 A3012 RMK A01 T01000068  RH  082%=      5-min Rain = 0
KRLS 100250Z 20006KT 10/07 A3012 RMK A01 T01010069  RH  082%=      5-min Rain = 0
KRLS 100255Z 20007KT 10/07 A3012 RMK A01 T01010069  RH  082%=      5-min Rain = 0
KRLS 100300Z 20007KT 10/07 A3012 RMK A01 T01010068  RH  082%=      5-min Rain = 0
KRLS 100305Z 20007KT 10/07 A3012 RMK A01 T00990067  RH  082%=      5-min Rain = 0
KRLS 100310Z 20007KT 10/07 A3012 RMK A01 T00980067  RH  083%=      5-min Rain = 0
KRLS 100315Z 20007KT 10/07 A3012 RMK A01 T00990067  RH  083%=      5-min Rain = 0
KRLS 100320Z 20007KT 10/07 A3012 RMK A01 T00990066  RH  082%=      5-min Rain = 0
KRLS 100325Z 20008KT 10/07 A3012 RMK A01 T00980065  RH  082%=      5-min Rain = 0
KRLS 100330Z 20008KT 10/06 A3012 RMK A01 T00970064  RH  082%=      5-min Rain = 0
KRLS 100335Z 20008KT 10/06 A3012 RMK A01 T00950061  RH  082%=      5-min Rain = 0
KRLS 100340Z 20009KT 10/06 A3012 RMK A01 T00950062  RH  082%=      5-min Rain = 0
KRLS 100345Z 20009KT 10/06 A3012 RMK A01 T00970063  RH  081%=      5-min Rain = 0
KRLS 100350Z 20008KT 10/06 A3012 RMK A01 T00960063  RH  081%=      5-min Rain = 0
KRLS 100355Z 20008KT 10/06 A3012 RMK A01 T00950063  RH  082%=      5-min Rain = 0
KRLS 100400Z 20008KT 10/06 A3012 RMK A01 T00960064  RH  082%=      5-min Rain = 0
KRLS 100405Z 20008KT 10/07 A3011 RMK A01 T00970066  RH  083%=      5-min Rain = 0
KRLS 100410Z 20008KT 10/07 A3011 RMK A01 T00980066  RH  083%=      5-min Rain = 0
KRLS 100415Z 20007KT 10/07 A3011 RMK A01 T00970066  RH  083%=      5-min Rain = 0
KRLS 100420Z 20008KT 10/07 A3011 RMK A01 T00980068  RH  084%=      5-min Rain = 0
KRLS 100425Z 20008KT 10/07 A3011 RMK A01 T00980068  RH  084%=      5-min Rain = 0
KRLS 100430Z 20008KT 10/07 A3011 RMK A01 T00980068  RH  084%=      5-min Rain = 0
KRLS 100435Z 20008KT 10/07 A3011 RMK A01 T00960067  RH  084%=      5-min Rain = 0
KRLS 100440Z 20008KT 10/07 A3011 RMK A01 T00950068  RH  085%=      5-min Rain = 0
KRLS 100445Z 20008KT 10/07 A3011 RMK A01 T00960069  RH  085%=      5-min Rain = 0
KRLS 100450Z 20008KT 10/07 A3011 RMK A01 T00970070  RH  085%=      5-min Rain = 0
KRLS 100455Z 20008KT 10/07 A3011 RMK A01 T01000072  RH  085%=      5-min Rain = 0
KRLS 100500Z 20008KT 10/07 A3011 RMK A01 T01010072  RH  084%=      5-min Rain = 0
KRLS 100505Z 20007KT 10/07 A3011 RMK A01 T00990069  RH  084%=      5-min Rain = 0
KRLS 100510Z 20006KT 10/07 A3011 RMK A01 T00960068  RH  085%=      5-min Rain = 0
KRLS 100515Z 20006KT 10/07 A3011 RMK A01 T00960069  RH  085%=      5-min Rain = 0
KRLS 100520Z 20006KT 10/07 A3011 RMK A01 T00960069  RH  085%=      5-min Rain = 0
KRLS 100525Z 20007KT 10/07 A3011 RMK A01 T00960069  RH  085%=      5-min Rain = 0
KRLS 100530Z 21006KT 09/06 A3011 RMK A01 T00900062  RH  085%=      5-min Rain = 0
KRLS 100535Z 21005KT 09/06 A3011 RMK A01 T00850060  RH  086%=      5-min Rain = 0
KRLS 100540Z 22004KT 09/06 A3011 RMK A01 T00850060  RH  087%=      5-min Rain = 0
KRLS 100545Z 22004KT 09/06 A3011 RMK A01 T00860062  RH  087%=      5-min Rain = 0
KRLS 100550Z 21004KT 08/06 A3011 RMK A01 T00840061  RH  088%=      5-min Rain = 0
KRLS 100555Z 21004KT 08/06 A3011 RMK A01 T00840062  RH  088%=      5-min Rain = 0

Page generated in 0.0128 seconds.